Time;durP1;ratioP1;P1;durP2;ratioP2;P2;SDS_P1;SDS_P2;PMS_P1;PMS_P2;Temp;Humidity;BMP_temperature;BMP_pressure;BME280_temperature;BME280_humidity;BME280_pressure;Samples;Min_cycle;Max_cycle;Signal;HPM_P1;HPM_P2
2022/10/02 10:41:50;;;;;;;9.40;2.30;;;;;;;18.64;68.11;99993.47;2224652;79;32450;-70
2022/10/02 10:45:18;;;;;;;17.75;2.75;;;;;;;18.77;67.69;99989.17;2217290;79;32789;-64
2022/10/02 10:48:48;;;;;;;8.03;2.30;;;;;;;18.91;67.21;99992.49;2216418;79;29956;-62
2022/10/02 10:52:27;;;;;;;9.75;2.83;;;;;;;18.96;67.13;99984.80;2263759;78;27644;-62
2022/10/02 10:56:08;;;;;;;11.35;4.45;;;;;;;19.03;66.62;99988.70;2266052;78;28865;-67
2022/10/02 10:59:41;;;;;;;6.92;2.35;;;;;;;19.08;66.17;99985.56;2256245;78;31407;-69
2022/10/02 11:03:16;;;;;;;9.68;2.45;;;;;;;19.25;65.75;99982.68;2258670;78;33408;-63
2022/10/02 11:07:06;;;;;;;5.55;2.20;;;;;;;19.36;64.72;99982.55;2259812;78;28809;-63
2022/10/02 11:10:18;;;;;;;8.30;1.98;;;;;;;19.41;65.10;99983.47;2201495;80;28449;-64
2022/10/02 11:13:53;;;;;;;12.58;2.33;;;;;;;19.49;65.13;99973.25;2248483;78;28826;-64
2022/10/02 11:17:30;;;;;;;5.97;1.72;;;;;;;19.51;63.99;99967.18;2227747;78;31380;-66
2022/10/02 11:21:05;;;;;;;4.60;2.25;;;;;;;19.44;63.62;99966.38;2216562;78;33487;-73
2022/10/02 11:24:21;;;;;;;7.75;2.87;;;;;;;19.28;63.31;99969.66;2148673;81;29947;-68
2022/10/02 11:27:34;;;;;;;5.22;1.80;;;;;;;19.11;63.14;99973.91;2176537;81;27640;-66
2022/10/02 11:31:19;;;;;;;6.65;1.95;;;;;;;18.99;63.46;99975.03;2210637;80;28537;-68
2022/10/02 11:35:11;;;;;;;5.25;1.92;;;;;;;18.85;63.28;99970.84;2134557;82;32934;-69
2022/10/02 11:39:03;;;;;;;5.45;1.98;;;;;;;18.73;63.26;99965.13;2123660;83;33206;-70
2022/10/02 11:42:19;;;;;;;8.38;2.83;;;;;;;18.75;62.90;99959.07;2224940;79;28850;-68
2022/10/02 11:45:59;;;;;;;9.55;2.42;;;;;;;18.83;63.23;99958.75;2250800;78;27856;-63
2022/10/02 11:49:25;;;;;;;7.72;1.98;;;;;;;18.89;63.36;99957.84;2222959;79;29113;-68
2022/10/02 11:52:40;;;;;;;;;;;;;;;18.97;63.03;99949.88;2230917;79;31545;-64
2022/10/02 11:55:55;;;;;;;7.92;2.90;;;;;;;19.04;61.90;99956.96;2267726;78;33438;-67
2022/10/02 11:59:28;;;;;;;4.67;2.55;;;;;;;19.09;62.09;99949.27;2261409;78;29122;-64
2022/10/02 12:02:41;;;;;;;10.68;2.40;;;;;;;19.20;62.19;99955.08;2261768;78;27718;-64
2022/10/02 12:06:12;;;;;;;6.53;2.40;;;;;;;19.32;61.78;99953.94;2264011;78;29113;-64
2022/10/02 12:09:28;;;;;;;6.12;2.10;;;;;;;19.44;61.91;99943.80;2259476;78;32294;-66
2022/10/02 12:12:43;;;;;;;9.68;2.77;;;;;;;19.61;61.92;99940.84;2267405;78;33434;-64
2022/10/02 12:16:28;;;;;;;9.93;2.05;;;;;;;19.79;61.74;99942.84;2263011;78;29102;-67
2022/10/02 12:26:57;;;;;;;10.08;3.25;;;;;;;19.96;61.02;99937.20;2267626;78;27738;-62
2022/10/02 12:26:59;;;;;;;5.90;2.15;;;;;;;19.95;60.31;99938.21;2263350;77;32216;-62
2022/10/02 12:30:30;;;;;;;7.30;3.33;;;;;;;19.81;60.20;99939.48;2265437;78;33045;-62
2022/10/02 12:33:47;;;;;;;8.10;2.20;;;;;;;19.73;59.95;99949.72;2182092;79;28949;-63
2022/10/02 12:37:23;;;;;;;11.55;4.25;;;;;;;19.64;59.39;99941.09;2173918;80;27837;-62
2022/10/02 12:40:54;;;;;;;7.90;2.50;;;;;;;19.40;59.05;99940.52;2187587;80;28593;-63
2022/10/02 12:44:15;;;;;;;8.60;3.65;;;;;;;19.16;59.13;99942.29;2156604;80;31752;-65
2022/10/02 12:47:37;;;;;;;5.72;2.40;;;;;;;18.97;58.81;99949.88;2146282;81;34067;-62
2022/10/02 12:50:56;;;;;;;4.97;1.95;;;;;;;18.88;59.09;99958.32;2140491;81;29929;-63
2022/10/02 12:54:32;;;;;;;4.87;1.70;;;;;;;18.83;59.16;99952.47;2101940;83;27719;-63
2022/10/02 12:57:51;;;;;;;7.53;2.08;;;;;;;18.81;59.41;99953.95;2101476;82;29931;-62
2022/10/02 13:01:06;;;;;;;6.70;2.20;;;;;;;18.81;59.94;99950.39;2104961;83;30938;-63
2022/10/02 13:04:39;;;;;;;4.42;1.50;;;;;;;18.81;59.24;99955.30;2063791;85;34390;-63
2022/10/02 13:08:15;;;;;;;1.95;1.10;;;;;;;18.81;59.52;99950.39;2062395;85;29108;-61
2022/10/02 13:11:43;;;;;;;4.65;1.42;;;;;;;18.77;59.72;99954.38;2052638;84;27730;-63
2022/10/02 13:15:24;;;;;;;3.50;1.40;;;;;;;18.78;59.68;99954.73;2071516;84;29077;-63
2022/10/02 13:18:51;;;;;;;3.72;1.62;;;;;;;18.82;60.13;99955.67;2050992;84;32242;-64
2022/10/02 13:22:01;;;;;;;3.80;1.37;;;;;;;18.84;59.78;99935.19;2079792;84;34108;-65
2022/10/02 13:25:37;;;;;;;3.55;1.20;;;;;;;18.81;59.66;99937.66;2065700;84;29100;-63
2022/10/02 13:29:02;;;;;;;3.90;2.83;;;;;;;18.74;59.29;99935.64;2126248;82;27688;-63
2022/10/02 13:32:21;;;;;;;2.40;1.70;;;;;;;18.55;59.09;99926.44;2152289;81;29027;-62
2022/10/02 13:36:00;;;;;;;2.42;1.47;;;;;;;18.37;59.35;99918.10;2059372;85;31153;-64
2022/10/02 13:39:22;;;;;;;3.27;1.65;;;;;;;18.24;59.58;99914.25;2058857;84;33820;-61
2022/10/02 13:42:55;;;;;;;5.00;1.50;;;;;;;18.09;59.83;99906.12;2057682;85;29722;-65
2022/10/02 13:46:24;;;;;;;4.45;1.42;;;;;;;17.93;59.70;99900.66;2013413;86;27816;-63
2022/10/02 13:50:14;;;;;;;5.92;1.92;;;;;;;17.76;60.06;99900.78;1976916;85;28707;-63
2022/10/02 13:53:46;;;;;;;5.33;2.08;;;;;;;17.60;60.35;99897.16;2086036;84;31486;-63
2022/10/02 13:57:16;;;;;;;5.35;1.82;;;;;;;17.46;60.58;99884.31;2066683;83;33176;-61
2022/10/02 14:00:51;;;;;;;5.33;2.10;;;;;;;17.33;60.57;99880.94;2087987;83;29239;-62
2022/10/02 14:04:15;;;;;;;5.47;2.12;;;;;;;17.15;60.73;99878.80;2157100;81;27662;-62
2022/10/02 14:07:28;;;;;;;6.97;2.93;;;;;;;17.04;61.09;99872.56;2166954;81;29086;-63
2022/10/02 14:10:54;;;;;;;8.80;3.52;;;;;;;16.89;61.28;99868.77;2157893;78;31779;-63
2022/10/02 14:14:43;;;;;;;7.72;3.12;;;;;;;16.81;61.55;99865.83;2266082;78;33077;-63
2022/10/02 14:18:04;;;;;;;9.63;3.15;;;;;;;16.71;61.72;99853.59;2262226;77;29086;-62
2022/10/02 14:21:29;;;;;;;10.03;2.92;;;;;;;16.65;62.14;99860.84;2134523;81;27739;-63
2022/10/02 14:25:00;;;;;;;8.73;2.40;;;;;;;16.60;62.36;99859.00;2136587;81;29545;-62
2022/10/02 14:28:22;;;;;;;8.00;2.65;;;;;;;16.55;62.50;99845.86;2121977;81;31165;-63
2022/10/02 14:31:34;;;;;;;3.83;1.90;;;;;;;16.55;62.77;99843.16;2133808;81;33125;-62
2022/10/02 14:34:59;;;;;;;5.97;2.08;;;;;;;16.55;62.91;99850.77;2139174;82;28891;-63
2022/10/02 14:38:32;;;;;;;6.22;2.20;;;;;;;16.56;63.15;99858.41;2121939;83;27789;-63
2022/10/02 14:41:51;;;;;;;5.33;1.90;;;;;;;16.51;63.31;99861.97;2111624;83;28493;-62
2022/10/02 14:45:20;;;;;;;11.57;2.60;;;;;;;16.48;63.60;99867.62;2117399;83;31075;-63
2022/10/02 14:48:47;;;;;;;7.50;2.67;;;;;;;16.45;63.89;99867.39;2106373;83;33850;-63
2022/10/02 14:52:06;;;;;;;10.53;2.98;;;;;;;16.37;63.75;99869.88;2051216;85;29073;-63
2022/10/02 14:55:39;;;;;;;8.85;3.10;;;;;;;16.31;64.06;99878.47;2050407;85;28405;-63
2022/10/02 14:59:11;;;;;;;10.03;2.92;;;;;;;16.26;64.88;99872.09;2134071;82;28703;-60
2022/10/02 15:02:40;;;;;;;6.20;2.47;;;;;;;16.21;65.45;99861.66;2124246;82;31309;-63
2022/10/02 15:06:02;;;;;;;9.43;2.85;;;;;;;16.15;65.83;99862.13;2055626;85;33385;-61
2022/10/02 15:09:47;;;;;;;11.55;3.83;;;;;;;16.08;66.32;99865.82;2013489;87;29906;-62
2022/10/02 15:13:04;;;;;;;6.37;3.20;;;;;;;16.00;66.71;99875.52;2006442;87;28284;-62
2022/10/02 15:19:41;;;;;;;12.50;4.35;;;;;;;15.80;67.37;99893.61;2016295;86;31356;-61
2022/10/02 15:22:55;;;;;;;13.43;7.05;;;;;;;15.71;68.39;99902.95;2031409;86;29450;-61
2022/10/02 15:26:46;;;;;;;14.35;6.87;;;;;;;15.62;68.66;99886.47;2024599;86;30410;-62
2022/10/02 15:29:52;;;;;;;15.05;8.45;;;;;;;15.60;69.22;99867.33;2023032;86;28528;-62
2022/10/02 15:33:20;;;;;;;9.23;4.78;;;;;;;15.52;69.62;99874.68;2015764;86;28803;-65
2022/10/02 15:36:32;;;;;;;10.50;3.77;;;;;;;15.45;69.95;99882.39;2028800;86;31430;-62
2022/10/02 15:40:09;;;;;;;7.70;4.05;;;;;;;15.33;69.95;99890.06;2035083;86;34072;-62
2022/10/02 15:43:25;;;;;;;12.37;6.40;;;;;;;15.17;69.68;99899.83;2070856;85;29050;-62
2022/10/02 15:46:56;;;;;;;12.75;5.85;;;;;;;14.95;69.50;99898.73;2096748;83;28835;-62
2022/10/02 15:50:21;;;;;;;15.28;8.75;;;;;;;14.73;69.55;99896.77;2125215;82;28426;-62
2022/10/02 15:53:37;;;;;;;17.95;8.73;;;;;;;14.54;69.68;99901.27;2145128;81;31153;-61
2022/10/02 15:57:02;;;;;;;21.20;9.93;;;;;;;14.37;69.88;99907.88;2121416;83;33813;-60
2022/10/02 16:00:20;;;;;;;14.98;7.67;;;;;;;14.21;70.20;99917.05;2114285;82;29077;-61
2022/10/02 16:03:31;;;;;;;20.68;8.65;;;;;;;14.09;70.46;99918.78;2151630;81;27898;-63
2022/10/02 16:07:03;;;;;;;17.55;9.13;;;;;;;13.93;70.50;99924.40;2103503;83;29478;-62
2022/10/02 16:10:27;;;;;;;16.15;7.83;;;;;;;13.80;70.78;99921.69;2120077;83;32216;-62
2022/10/02 16:14:06;;;;;;;15.87;7.70;;;;;;;13.65;71.04;99924.95;2108801;83;34175;-62
2022/10/02 16:17:17;;;;;;;13.38;7.25;;;;;;;13.53;71.42;99921.75;2105433;83;29075;-62
2022/10/02 16:20:27;;;;;;;20.92;10.68;;;;;;;13.43;71.74;99928.74;2108742;83;27728;-60
2022/10/02 16:23:39;;;;;;;25.92;10.75;;;;;;;13.35;71.98;99938.14;2119032;81;29974;-60
2022/10/02 16:27:18;;;;;;;23.80;10.35;;;;;;;13.29;72.27;99930.97;2129475;81;32304;-62
2022/10/02 16:30:24;;;;;;;17.20;8.95;;;;;;;13.22;72.47;99927.84;2128018;81;33610;-59
2022/10/02 16:33:43;;;;;;;16.15;7.35;;;;;;;13.13;72.72;99927.97;2126899;81;30156;-60
2022/10/02 16:37:01;;;;;;;12.93;6.72;;;;;;;13.07;72.98;99927.05;2128566;81;27866;-59
2022/10/02 16:40:14;;;;;;;10.08;5.67;;;;;;;12.97;73.12;99942.92;2131881;81;28659;-61
2022/10/02 16:43:57;;;;;;;23.80;14.63;;;;;;;12.88;73.16;99943.04;2037073;84;31479;-60
2022/10/02 16:47:13;;;;;;;15.25;9.68;;;;;;;12.82;73.42;99946.11;2050163;84;33369;-60
2022/10/02 16:50:49;;;;;;;;;;;;;;;12.75;73.69;99946.11;2036090;85;29072;-60
2022/10/02 16:54:22;;;;;;;22.80;13.90;;;;;;;12.70;73.91;99946.91;2043145;85;27807;-63
2022/10/02 16:57:48;;;;;;;22.42;14.47;;;;;;;12.60;74.07;99948.83;2064185;85;28885;-61
2022/10/02 17:01:00;;;;;;;18.00;13.35;;;;;;;12.53;74.16;99953.35;2049690;84;32282;-60
2022/10/02 17:04:50;;;;;;;20.43;12.58;;;;;;;12.44;74.18;99952.11;2067424;84;33658;-59
2022/10/02 17:08:06;;;;;;;17.05;10.68;;;;;;;12.35;74.24;99960.27;2066337;84;29468;-60
2022/10/02 17:11:24;;;;;;;13.90;8.83;;;;;;;12.24;74.45;99970.36;2070727;84;27805;-61
2022/10/02 17:14:39;;;;;;;16.32;8.20;;;;;;;12.11;74.45;99969.37;2073979;84;28895;-61
2022/10/02 17:18:01;;;;;;;16.73;7.45;;;;;;;11.99;74.59;99966.48;2067294;84;32193;-61
2022/10/02 17:21:20;;;;;;;15.48;7.65;;;;;;;11.89;74.97;99968.45;2177688;79;32728;-60
2022/10/02 17:24:46;;;;;;;11.97;6.12;;;;;;;11.78;75.17;99970.42;2223897;78;30212;-61
2022/10/02 17:28:02;;;;;;;11.60;6.65;;;;;;;11.69;75.41;99970.50;2124140;82;27898;-59
2022/10/02 17:31:34;;;;;;;7.65;5.20;;;;;;;11.60;75.66;99973.75;2182271;80;30119;-60
2022/10/02 17:34:49;;;;;;;28.23;18.62;;;;;;;11.52;75.76;99980.91;2131191;81;32242;-59
2022/10/02 17:38:11;;;;;;;20.88;13.05;;;;;;;11.43;75.82;99989.02;2140836;81;32806;-60
2022/10/02 17:41:52;;;;;;;9.10;6.80;;;;;;;11.34;76.07;99990.41;2172958;80;29453;-59
2022/10/02 17:45:25;;;;;;;13.80;5.80;;;;;;;11.27;76.28;99993.05;2189892;80;27891;-59
2022/10/02 17:48:54;;;;;;;5.80;4.58;;;;;;;11.20;76.56;100002.41;2180827;80;29182;-60
2022/10/02 17:56:27;;;;;;;9.58;4.92;;;;;;;11.09;77.06;100003.88;2163772;81;34079;-61
2022/10/02 17:59:48;;;;;;;10.15;5.25;;;;;;;11.06;77.02;100007.21;2122988;82;29507;-60
2022/10/02 18:03:04;;;;;;;11.33;5.50;;;;;;;11.01;77.22;100020.00;2089215;83;27763;-59
2022/10/02 18:06:57;;;;;;;8.98;4.22;;;;;;;10.97;77.51;100021.99;2160085;79;29541;-62
2022/10/02 18:10:13;;;;;;;6.22;4.08;;;;;;;10.93;77.67;100018.62;2108044;82;31090;-60
2022/10/02 18:13:26;;;;;;;;;;;;;;;10.92;77.89;100026.28;2111361;82;33341;-68
2022/10/02 18:16:36;;;;;;;11.65;4.12;;;;;;;10.92;78.06;100025.42;2087879;84;29445;-65
2022/10/02 18:20:16;;;;;;;7.45;4.28;;;;;;;10.91;78.06;100037.95;2100864;84;28366;-67
2022/10/02 18:23:49;;;;;;;7.22;4.37;;;;;;;10.88;78.13;100033.23;2110428;84;29597;-60
2022/10/02 18:27:28;;;;;;;10.93;4.78;;;;;;;10.87;78.30;100039.55;2109856;84;30970;-62
2022/10/02 18:30:51;;;;;;;11.45;5.25;;;;;;;10.83;78.38;100037.52;2067237;85;33116;-62
2022/10/02 18:34:15;;;;;;;15.45;7.30;;;;;;;10.79;78.39;100031.93;2066439;85;30219;-61
2022/10/02 18:37:31;;;;;;;15.03;6.67;;;;;;;10.75;78.40;100035.27;2030446;87;28115;-66
2022/10/02 18:40:54;;;;;;;13.98;7.00;;;;;;;10.73;78.54;100029.58;1989987;88;28662;-62
2022/10/02 18:44:07;;;;;;;14.07;6.80;;;;;;;10.70;78.74;100027.06;2031961;86;31468;-64
2022/10/02 18:47:33;;;;;;;12.05;6.62;;;;;;;10.67;78.83;100030.78;2070831;85;34021;-64
2022/10/02 18:50:56;;;;;;;10.82;6.25;;;;;;;10.68;79.00;100036.53;2042250;86;29902;-61
2022/10/02 18:54:18;;;;;;;11.68;5.70;;;;;;;10.67;79.20;100035.29;2042285;86;28532;-64
2022/10/02 18:58:03;;;;;;;11.30;5.95;;;;;;;10.65;79.25;100043.39;2030092;87;28692;-66
2022/10/02 19:01:29;;;;;;;14.03;5.87;;;;;;;10.65;79.36;100054.11;2037266;86;31180;-66
2022/10/02 19:05:00;;;;;;;12.25;6.50;;;;;;;10.67;79.68;100058.91;2074675;83;33391;-65
2022/10/02 19:08:16;;;;;;;12.58;6.97;;;;;;;10.71;79.77;100067.18;2108934;84;29074;-62
2022/10/02 19:11:18;;;;;;;16.95;7.67;;;;;;;10.76;80.13;100077.16;2114246;84;27805;-61
2022/10/02 19:14:31;;;;;;;12.10;6.22;;;;;;;10.82;80.31;100089.38;2141402;81;29018;-63
2022/10/02 19:17:33;;;;;;;11.12;6.20;;;;;;;10.86;80.49;100084.22;2261447;77;31118;-62
2022/10/02 19:20:52;;;;;;;8.70;6.00;;;;;;;10.94;80.76;100094.52;2261115;78;33339;-63
2022/10/02 19:24:07;;;;;;;19.98;6.35;;;;;;;10.98;80.86;100089.39;2265757;78;29099;-65
2022/10/02 19:27:14;;;;;;;4.37;2.45;;;;;;;11.05;81.15;100074.72;2265186;78;27663;-63
2022/10/02 19:30:29;;;;;;;6.00;3.40;;;;;;;11.09;80.74;100070.89;2260741;78;29086;-72
2022/10/02 19:33:48;;;;;;;7.08;3.33;;;;;;;11.13;80.90;100074.75;2260043;78;31843;-71
2022/10/02 19:36:53;;;;;;;11.75;4.50;;;;;;;11.18;81.13;100081.58;2262730;78;33045;-65
2022/10/02 19:39:59;;;;;;;7.50;4.28;;;;;;;11.23;81.21;100083.54;2259584;77;29088;-68
2022/10/02 19:43:23;;;;;;;9.68;5.45;;;;;;;11.25;81.17;100079.45;2232938;78;27605;-69
2022/10/02 19:46:32;;;;;;;12.40;5.85;;;;;;;11.24;81.10;100083.94;2215418;78;29648;-61
2022/10/02 19:49:38;;;;;;;9.05;5.60;;;;;;;11.22;81.05;100089.85;2167282;81;32202;-67
2022/10/02 19:52:58;;;;;;;10.05;6.25;;;;;;;11.18;80.96;100089.62;2196458;79;33526;-71
2022/10/02 19:56:23;;;;;;;17.95;6.10;;;;;;;11.13;80.89;100087.70;2173700;81;28394;-67
2022/10/02 19:59:30;;;;;;;10.13;5.35;;;;;;;11.08;80.94;100091.09;2192778;79;27871;-66
2022/10/02 20:02:41;;;;;;;10.75;6.75;;;;;;;11.02;81.01;100094.98;2181394;80;29402;-72
2022/10/02 20:05:44;;;;;;;10.13;5.67;;;;;;;10.98;80.98;100091.23;2173178;79;32209;-67
2022/10/02 20:08:59;;;;;;;9.35;5.53;;;;;;;10.92;80.94;100099.13;2248128;78;32983;-71
2022/10/02 20:12:30;;;;;;;8.18;5.20;;;;;;;10.86;80.96;100100.30;2224043;78;29839;-66
2022/10/02 20:19:28;;;;;;;8.65;5.60;;;;;;;10.73;81.00;100108.16;2246546;78;29914;-70
2022/10/02 20:22:47;;;;;;;10.40;6.05;;;;;;;10.63;80.97;100107.78;2249049;78;31072;-69
2022/10/02 20:25:55;;;;;;;11.80;5.92;;;;;;;10.55;81.01;100111.33;2243463;78;34442;-69
2022/10/02 20:29:04;;;;;;;11.18;6.05;;;;;;;10.49;81.07;100117.02;2225754;78;29019;-62
2022/10/02 20:32:20;;;;;;;12.05;5.30;;;;;;;10.43;81.13;100118.18;2239969;78;27459;-67
2022/10/02 20:35:27;;;;;;;;;;;;;;;10.36;81.28;100123.45;2241647;78;29169;-64
2022/10/02 20:38:40;;;;;;;;;;;;;;;10.31;81.33;100122.81;2251367;77;31056;-66
2022/10/02 20:41:58;;;;;;;14.15;5.33;;;;;;;10.25;81.36;100127.16;2242017;78;33401;-69
2022/10/02 20:44:59;;;;;;;9.85;5.45;;;;;;;10.17;81.35;100131.08;2261870;78;29073;-63
2022/10/02 20:48:35;;;;;;;15.03;5.58;;;;;;;10.10;81.34;100130.98;2262500;78;27694;-61
2022/10/02 20:52:07;;;;;;;9.48;6.22;;;;;;;10.04;81.35;100136.17;2259081;78;29059;-64
2022/10/02 20:55:43;;;;;;;10.58;5.30;;;;;;;9.98;81.46;100136.50;2265912;78;31160;-61
2022/10/02 20:59:00;;;;;;;7.58;3.98;;;;;;;9.94;81.57;100133.58;2264064;78;34115;-67
2022/10/02 21:02:33;;;;;;;12.30;4.62;;;;;;;9.87;81.68;100139.70;2254891;78;30235;-62
2022/10/02 21:06:12;;;;;;;13.53;4.37;;;;;;;9.83;81.79;100145.30;2257241;78;27811;-62
2022/10/02 21:09:45;;;;;;;8.60;5.60;;;;;;;9.79;81.93;100143.70;2228596;78;29155;-62
2022/10/02 21:12:57;;;;;;;9.00;4.10;;;;;;;9.73;81.94;100149.73;2191005;78;32178;-63
2022/10/02 21:16:14;;;;;;;12.68;4.85;;;;;;;9.69;82.04;100147.30;2187479;80;33457;-70
2022/10/02 21:19:55;;;;;;;9.65;4.58;;;;;;;9.65;82.21;100147.92;2187668;80;29489;-64
2022/10/02 21:23:37;;;;;;;10.32;5.70;;;;;;;9.62;82.26;100150.73;2199588;79;27745;-63
2022/10/02 21:27:02;;;;;;;9.93;4.00;;;;;;;9.60;82.39;100158.45;2169095;82;29133;-60
2022/10/02 21:30:17;;;;;;;12.60;4.22;;;;;;;9.54;82.42;100159.13;2184705;80;32130;-62
2022/10/02 21:33:21;;;;;;;;;;;;;;;9.52;82.59;100161.00;2163554;81;34249;-66
2022/10/02 21:36:30;;;;;;;7.50;3.83;;;;;;;9.50;82.76;100156.68;2180344;81;28458;-63
2022/10/02 21:40:23;;;;;;;13.43;3.80;;;;;;;9.46;82.80;100159.95;2181214;81;28348;-62
2022/10/02 21:44:21;;;;;;;8.35;3.77;;;;;;;9.45;82.92;100160.89;2145047;81;29877;-61
2022/10/02 21:47:48;;;;;;;10.75;4.08;;;;;;;9.44;83.11;100155.14;2191121;81;31498;-63
2022/10/02 21:51:18;;;;;;;12.03;4.65;;;;;;;9.43;83.04;100158.78;2146591;82;34206;-62
2022/10/02 21:55:09;;;;;;;6.90;3.72;;;;;;;9.40;83.03;100161.59;2174594;81;29385;-66
2022/10/02 21:58:52;;;;;;;10.25;3.77;;;;;;;9.38;83.12;100166.14;2262354;78;27631;-62
2022/10/02 22:02:38;;;;;;;8.03;3.60;;;;;;;9.34;83.22;100169.44;2204151;80;28872;-62
2022/10/02 22:05:51;;;;;;;8.20;3.42;;;;;;;9.33;83.38;100169.48;2186448;80;31458;-61
2022/10/02 22:09:10;;;;;;;8.45;3.50;;;;;;;9.33;83.54;100170.38;2188476;80;33450;-65
2022/10/02 22:12:43;;;;;;;11.73;4.15;;;;;;;9.35;83.74;100174.30;2199059;80;29110;-62
2022/10/02 22:16:08;;;;;;;9.05;3.35;;;;;;;9.40;84.05;100172.29;2181799;80;28148;-61
2022/10/02 22:19:25;;;;;;;;;;;;;;;9.45;84.17;100180.09;2196745;80;29538;-61
2022/10/02 22:22:58;;;;;;;13.80;4.08;;;;;;;9.50;84.30;100179.41;2190222;80;31446;-62
2022/10/02 22:26:32;;;;;;;8.95;3.45;;;;;;;9.53;84.37;100179.23;2205507;80;33467;-62
2022/10/02 22:29:49;;;;;;;8.20;3.35;;;;;;;9.59;84.50;100181.64;2195684;80;29438;-64
2022/10/02 22:33:12;;;;;;;13.13;4.30;;;;;;;9.64;84.62;100183.63;2198833;80;27712;-65
2022/10/02 22:36:47;;;;;;;12.37;3.98;;;;;;;9.69;84.74;100184.74;2197515;80;29665;-65
2022/10/02 22:39:54;;;;;;;8.30;3.50;;;;;;;9.75;84.71;100176.89;2138479;81;33044;-64
2022/10/02 22:43:03;;;;;;;10.55;4.40;;;;;;;9.79;84.81;100183.34;2150700;82;32963;-65
2022/10/02 22:46:26;;;;;;;8.33;3.10;;;;;;;9.84;84.84;100185.34;2155638;81;29109;-70
2022/10/02 22:49:47;;;;;;;10.60;3.35;;;;;;;9.90;84.88;100181.49;2143445;82;27672;-62
2022/10/02 22:53:06;;;;;;;9.25;3.95;;;;;;;9.95;84.90;100183.48;2149182;82;29934;-65
2022/10/02 22:56:16;;;;;;;11.65;3.45;;;;;;;10.01;84.95;100178.30;2162823;81;31401;-65
2022/10/02 22:59:43;;;;;;;5.30;2.98;;;;;;;10.07;84.97;100186.03;2167306;80;33790;-61
2022/10/02 23:02:59;;;;;;;8.08;2.83;;;;;;;10.12;84.99;100182.63;2172737;80;29450;-62
2022/10/02 23:06:42;;;;;;;10.13;3.08;;;;;;;10.18;85.04;100181.00;2171232;80;27919;-61
2022/10/02 23:09:57;;;;;;;10.20;3.00;;;;;;;10.23;84.98;100176.75;2172689;80;29916;-61
2022/10/02 23:13:13;;;;;;;11.83;3.08;;;;;;;10.26;84.99;100180.61;2173478;80;31431;-66
2022/10/02 23:16:36;;;;;;;9.05;2.80;;;;;;;10.30;84.96;100182.66;2193260;79;33520;-65
2022/10/02 23:20:04;;;;;;;8.48;2.87;;;;;;;10.30;84.88;100183.54;2224280;79;29404;-64
2022/10/02 23:23:28;;;;;;;5.33;2.77;;;;;;;10.30;84.83;100183.54;2237182;78;28191;-62
2022/10/02 23:26:43;;;;;;;7.53;2.80;;;;;;;10.31;84.76;100180.38;2263662;78;29506;-61
2022/10/02 23:30:01;;;;;;;3.15;1.90;;;;;;;10.31;84.77;100189.75;2255238;78;35145;-66
2022/10/02 23:33:28;;;;;;;12.43;2.98;;;;;;;10.32;84.88;100190.14;2258374;78;33385;-65
2022/10/02 23:36:35;;;;;;;11.80;3.22;;;;;;;10.34;85.02;100186.92;2260336;78;29055;-62
2022/10/02 23:40:06;;;;;;;9.73;3.33;;;;;;;10.36;85.11;100189.05;2256414;78;27753;-62
2022/10/02 23:43:10;;;;;;;8.83;3.37;;;;;;;10.39;85.15;100185.38;2258995;78;29055;-64
2022/10/02 23:46:17;;;;;;;6.85;3.15;;;;;;;10.41;85.16;100184.38;2268221;78;30466;-65
2022/10/02 23:49:32;;;;;;;8.98;2.80;;;;;;;10.44;85.09;100186.02;2265758;78;34397;-65
2022/10/02 23:53:14;;;;;;;8.60;2.52;;;;;;;10.43;85.01;100187.81;2234741;78;28964;-64
2022/10/02 23:56:45;;;;;;;13.10;3.52;;;;;;;10.42;84.87;100186.56;2240355;78;27870;-65
